Knox City, Texas
Current Conditions -  °F | °C
As of 10:19 AM on Monday 24 Nov 2014 (Local Time) from KF05 Reporting Station
Scattered Clouds Scattered Clouds  
Wind Chill: 50°   Ceiling: Unl
Heat Index: 50°   Visibility: 10mi
Dew Point: 30°   Wind: 7mph
Humidity: 47%   Direction: 290°WNW
Pressure: 30.08"   Gusts: NA
Location:  33.42°N, 99.82°W
Report Text: KF05 241619Z AUTO 29006KT 10SM SCT100 10/M01 A3008 RMK AO2
Loading
Personal Weather Stations






























Interactive Weather Map New forecast layout! Learn more

10-Day Weather Forecast

Advertisements
Track Severe Weather on mobile